createdAt,value
2018-04-08T00:00:56.811Z,0
2018-04-08T00:01:56.305Z,0
2018-04-08T00:02:56.328Z,0
2018-04-08T00:04:11.523Z,0
2018-04-08T00:05:11.542Z,0
2018-04-08T00:06:11.307Z,0
2018-04-08T00:06:56.152Z,0
2018-04-08T00:07:56.948Z,0
2018-04-08T00:08:56.709Z,0
2018-04-08T00:09:57.020Z,0
2018-04-08T00:11:11.712Z,0
2018-04-08T00:11:57.029Z,0
2018-04-08T00:12:57.061Z,0
2018-04-08T00:13:56.811Z,0
2018-04-08T00:14:57.118Z,0
2018-04-08T00:15:56.592Z,0
2018-04-08T00:16:56.876Z,0
2018-04-08T00:17:57.153Z,0
2018-04-08T00:19:26.490Z,0
2018-04-08T00:19:57.198Z,0
2018-04-08T00:20:57.214Z,0
2018-04-08T00:21:57.237Z,0
2018-04-08T00:22:56.740Z,0
2018-04-08T00:23:57.282Z,0
2018-04-08T00:26:11.716Z,0
2018-04-08T00:26:56.822Z,0
2018-04-08T00:27:57.360Z,0
2018-04-08T00:28:57.378Z,0
2018-04-08T00:29:57.404Z,0
2018-04-08T00:30:56.900Z,0
2018-04-08T00:31:57.440Z,0
2018-04-08T00:33:12.120Z,0
2018-04-08T00:35:12.168Z,0
2018-04-08T00:36:12.281Z,0
2018-04-08T00:36:57.553Z,0
2018-04-08T00:37:57.569Z,0
2018-04-08T00:38:57.582Z,0
2018-04-08T00:39:57.607Z,0
2018-04-08T00:40:57.369Z,0
2018-04-08T00:41:57.129Z,0
2018-04-08T00:42:57.669Z,0
2018-04-08T00:44:12.350Z,0
2018-04-08T00:44:57.187Z,0
2018-04-08T00:45:57.727Z,0
2018-04-08T00:46:57.750Z,0
2018-04-08T00:47:57.772Z,0
2018-04-08T00:48:57.529Z,0
2018-04-08T00:51:12.232Z,0
2018-04-08T00:51:57.859Z,0
2018-04-08T00:52:57.362Z,0
2018-04-08T00:53:57.890Z,0
2018-04-08T00:54:57.910Z,0
2018-04-08T00:55:57.158Z,0
2018-04-08T00:56:57.950Z,0
2018-04-08T00:58:12.640Z,0
2018-04-08T00:58:57.574Z,0
2018-04-08T00:59:58.014Z,0
2018-04-08T01:00:58.039Z,0
2018-04-08T01:02:12.459Z,0
2018-04-08T01:02:58.078Z,0
2018-04-08T01:03:57.837Z,0
2018-04-08T01:04:58.131Z,0
2018-04-08T01:05:57.879Z,0
2018-04-08T01:07:27.476Z,0
2018-04-08T01:09:12.870Z,0
2018-04-08T01:09:58.226Z,0
2018-04-08T01:10:57.983Z,0
2018-04-08T01:12:12.659Z,0
2018-04-08T01:12:57.799Z,0
2018-04-08T01:14:12.442Z,0
2018-04-08T01:15:12.984Z,0
2018-04-08T01:15:58.086Z,0
2018-04-08T01:16:58.360Z,0
2018-04-08T01:18:12.827Z,0
2018-04-08T01:18:58.145Z,0
2018-04-08T01:19:58.434Z,0
2018-04-08T01:20:58.449Z,0
2018-04-08T01:22:12.609Z,0
2018-04-08T01:22:58.487Z,0
2018-04-08T01:23:58.517Z,0
2018-04-08T01:24:58.535Z,0
2018-04-08T01:25:58.293Z,0
2018-04-08T01:26:58.581Z,0
2018-04-08T01:27:58.588Z,0
2018-04-08T01:28:58.611Z,0
2018-04-08T01:29:58.673Z,0
2018-04-08T01:30:58.400Z,0
2018-04-08T01:31:58.409Z,0
2018-04-08T01:32:58.698Z,0
2018-04-08T01:33:58.453Z,0
2018-04-08T01:34:58.480Z,0
2018-04-08T01:36:13.422Z,0
2018-04-08T01:37:13.173Z,0
2018-04-08T01:37:58.799Z,0
2018-04-08T01:38:58.343Z,0
2018-04-08T01:39:58.576Z,0
2018-04-08T01:41:13.511Z,0
2018-04-08T01:41:58.359Z,0
2018-04-08T01:42:58.897Z,0
2018-04-08T01:43:58.915Z,0
2018-04-08T01:44:58.679Z,0
2018-04-08T01:45:58.701Z,0
2018-04-08T01:46:58.976Z,0
2018-04-08T01:47:59.000Z,0
2018-04-08T01:48:58.500Z,0
2018-04-08T01:49:58.779Z,0
2018-04-08T01:50:59.058Z,0
2018-04-08T01:51:58.560Z,0
2018-04-08T01:52:59.106Z,0
2018-04-08T01:54:13.778Z,0
2018-04-08T01:55:13.799Z,0
2018-04-08T01:55:59.165Z,0
2018-04-08T01:57:59.201Z,0
2018-04-08T01:58:59.275Z,0
2018-04-08T01:59:59.248Z,0
2018-04-08T02:00:59.261Z,0
2018-04-08T02:01:58.775Z,0
2018-04-08T02:02:59.044Z,0
2018-04-08T02:03:59.067Z,0
2018-04-08T02:04:59.099Z,0
2018-04-08T02:05:59.365Z,0
2018-04-08T02:06:59.390Z,0
2018-04-08T02:07:59.407Z,0
2018-04-08T02:08:59.273Z,0
2018-04-08T02:10:14.114Z,0
2018-04-08T02:10:59.212Z,0
2018-04-08T02:11:59.491Z,0
2018-04-08T02:12:59.511Z,0
2018-04-08T02:13:59.307Z,0
2018-04-08T02:14:59.289Z,0
2018-04-08T02:15:59.310Z,0
2018-04-08T02:17:59.608Z,0
2018-04-08T02:18:59.626Z,0
2018-04-08T02:19:59.389Z,0
2018-04-08T02:20:59.152Z,0
2018-04-08T02:21:59.693Z,0
2018-04-08T02:23:14.119Z,0
2018-04-08T02:23:59.474Z,0
2018-04-08T02:24:59.755Z,0
2018-04-08T02:26:14.171Z,0
2018-04-08T02:26:59.273Z,0
2018-04-08T02:28:13.958Z,0
2018-04-08T02:28:59.613Z,0
2018-04-08T02:29:59.595Z,0
2018-04-08T02:30:59.880Z,0
2018-04-08T02:31:59.118Z,0
2018-04-08T02:32:59.926Z,0
2018-04-08T02:33:59.966Z,0
2018-04-08T02:34:59.710Z,0
2018-04-08T02:35:59.720Z,0
2018-04-08T02:36:59.488Z,0
2018-04-08T02:38:00.052Z,0
2018-04-08T02:38:59.788Z,0
2018-04-08T02:40:14.462Z,0
2018-04-08T02:41:00.079Z,0
2018-04-08T02:42:14.505Z,0
2018-04-08T02:43:14.520Z,0
2018-04-08T02:43:59.887Z,0
2018-04-08T02:44:59.902Z,0
2018-04-08T02:46:00.190Z,0
2018-04-08T02:47:00.206Z,0
2018-04-08T02:48:00.222Z,0
2018-04-08T02:49:00.257Z,0
2018-04-08T02:50:00.282Z,0
2018-04-08T02:51:00.042Z,0
2018-04-08T02:52:00.055Z,0
2018-04-08T02:53:00.078Z,0
2018-04-08T02:54:00.357Z,0
2018-04-08T02:56:00.399Z,0
2018-04-08T02:57:29.467Z,0
2018-04-08T02:58:00.225Z,0
2018-04-08T03:00:00.210Z,0
2018-04-08T03:01:00.227Z,0
2018-04-08T03:02:15.176Z,0
2018-04-08T03:03:00.534Z,0
2018-04-08T03:04:14.943Z,0
2018-04-08T03:05:00.304Z,0
2018-04-08T03:06:00.594Z,0
2018-04-08T03:07:00.090Z,0
2018-04-08T03:08:00.375Z,0
2018-04-08T03:09:15.049Z,0
2018-04-08T03:10:00.673Z,0
2018-04-08T03:11:00.430Z,0
2018-04-08T03:12:00.449Z,0
2018-04-08T03:13:00.462Z,0
2018-04-08T03:14:00.232Z,0
2018-04-08T03:15:14.908Z,0
2018-04-08T03:16:00.787Z,0
2018-04-08T03:17:00.811Z,0
2018-04-08T03:18:00.563Z,0
2018-04-08T03:19:00.583Z,0
2018-04-08T03:20:00.862Z,0
2018-04-08T03:21:15.542Z,0
2018-04-08T03:23:00.663Z,0
2018-04-08T03:24:00.683Z,0
2018-04-08T03:25:00.457Z,0
2018-04-08T03:26:00.727Z,0
2018-04-08T03:26:59.970Z,0
2018-04-08T03:28:00.766Z,0
2018-04-08T03:29:30.362Z,0
2018-04-08T03:30:01.062Z,0
2018-04-08T03:31:15.500Z,0
2018-04-08T03:32:00.853Z,0
2018-04-08T03:33:01.121Z,0
2018-04-08T03:34:01.144Z,0
2018-04-08T03:35:15.305Z,0
2018-04-08T03:36:15.587Z,0
2018-04-08T03:37:00.944Z,0
2018-04-08T03:38:00.972Z,0
2018-04-08T03:39:01.262Z,0
2018-04-08T03:40:01.267Z,0
2018-04-08T03:41:01.285Z,0
2018-04-08T03:42:01.047Z,0
2018-04-08T03:43:01.322Z,0
2018-04-08T03:44:01.342Z,0
2018-04-08T03:45:15.503Z,0
2018-04-08T03:46:15.786Z,0
2018-04-08T03:47:15.807Z,0
2018-04-08T03:48:01.420Z,0
2018-04-08T03:49:01.451Z,0
2018-04-08T03:50:01.205Z,0
2018-04-08T03:51:16.147Z,0
2018-04-08T03:52:15.905Z,0
2018-04-08T03:53:16.190Z,0
2018-04-08T03:54:01.029Z,0
2018-04-08T03:55:01.306Z,0
2018-04-08T03:56:01.583Z,0
2018-04-08T03:58:01.791Z,0
2018-04-08T03:59:00.866Z,0
2018-04-08T04:00:01.405Z,0
2018-04-08T04:01:15.829Z,0
2018-04-08T04:02:01.441Z,0
2018-04-08T04:03:16.378Z,0
2018-04-08T04:04:01.224Z,0
2018-04-08T04:05:01.761Z,0
2018-04-08T04:06:01.780Z,0
2018-04-08T04:07:01.807Z,0
2018-04-08T04:08:01.564Z,0
2018-04-08T04:09:01.373Z,0
2018-04-08T04:10:01.606Z,0
2018-04-08T04:11:01.364Z,0
2018-04-08T04:12:16.301Z,0
2018-04-08T04:13:01.922Z,0
2018-04-08T04:14:01.939Z,0
2018-04-08T04:15:01.958Z,0
2018-04-08T04:16:01.734Z,0
2018-04-08T04:17:31.320Z,0
2018-04-08T04:18:02.069Z,0
2018-04-08T04:19:02.042Z,5
2018-04-08T04:22:02.105Z,5
2018-04-08T04:23:02.128Z,5
2018-04-08T04:24:01.905Z,5
2018-04-08T04:25:01.390Z,5
2018-04-08T04:26:02.184Z,5
2018-04-08T04:27:16.861Z,10
2018-04-08T04:28:01.703Z,10
2018-04-08T04:29:02.246Z,10
2018-04-08T04:30:01.995Z,10
2018-04-08T04:31:01.758Z,15
2018-04-08T04:32:16.961Z,15
2018-04-08T04:33:02.389Z,15
2018-04-08T04:34:02.337Z,15
2018-04-08T04:35:16.756Z,20
2018-04-08T04:36:02.377Z,20
2018-04-08T04:37:02.403Z,20
2018-04-08T04:38:02.413Z,20
2018-04-08T04:39:02.443Z,25
2018-04-08T04:40:01.937Z,25
2018-04-08T04:41:02.475Z,30
2018-04-08T04:42:02.497Z,30
2018-04-08T04:43:02.516Z,30
2018-04-08T04:44:02.540Z,35
2018-04-08T04:45:02.562Z,35
2018-04-08T04:46:02.570Z,35
2018-04-08T04:47:02.334Z,35
2018-04-08T04:48:02.093Z,40
2018-04-08T04:49:02.636Z,40
2018-04-08T04:50:17.311Z,45
2018-04-08T04:51:02.419Z,45
2018-04-08T04:52:02.692Z,45
2018-04-08T04:53:02.713Z,50
2018-04-08T04:54:02.478Z,50
2018-04-08T04:55:17.422Z,55
2018-04-08T04:56:01.998Z,60
2018-04-08T04:57:02.789Z,65
2018-04-08T04:58:17.218Z,105
2018-04-08T04:59:02.835Z,110
2018-04-08T05:00:02.857Z,115
2018-04-08T05:01:02.872Z,110
2018-04-08T05:02:17.550Z,125
2018-04-08T05:03:02.655Z,155
2018-04-08T05:04:17.074Z,185
2018-04-08T05:05:02.694Z,195
2018-04-08T05:06:17.633Z,205
2018-04-08T05:07:02.991Z,200
2018-04-08T05:08:02.753Z,160
2018-04-08T05:09:03.033Z,110
2018-04-08T05:10:02.796Z,90
2018-04-08T05:11:02.816Z,95
2018-04-08T05:12:02.840Z,100
2018-04-08T05:13:02.862Z,100
2018-04-08T05:14:03.065Z,105
2018-04-08T05:15:02.649Z,105
2018-04-08T05:16:03.189Z,110
2018-04-08T05:17:17.866Z,115
2018-04-08T05:18:02.972Z,165
2018-04-08T05:19:03.249Z,275
2018-04-08T05:21:03.027Z,240
2018-04-08T05:22:17.966Z,195
2018-04-08T05:23:03.072Z,260
2018-04-08T05:24:17.751Z,300
2018-04-08T05:25:03.115Z,310
2018-04-08T05:26:03.398Z,365
2018-04-08T05:27:17.558Z,415
2018-04-08T05:28:03.436Z,395
2018-04-08T05:29:18.129Z,235
2018-04-08T05:30:03.486Z,205
2018-04-08T05:31:03.508Z,210
2018-04-08T05:32:03.527Z,245
2018-04-08T05:33:03.037Z,260
2018-04-08T05:34:03.053Z,245
2018-04-08T05:35:03.776Z,285
2018-04-08T05:36:32.678Z,375
2018-04-08T05:37:18.297Z,460
2018-04-08T05:38:03.148Z,460
2018-04-08T05:39:18.087Z,420
2018-04-08T05:40:03.451Z,435
2018-04-08T05:41:04.009Z,420
2018-04-08T05:42:03.856Z,400
2018-04-08T05:43:03.783Z,435
2018-04-08T05:44:03.546Z,445
2018-04-08T05:45:18.492Z,390
2018-04-08T05:46:18.252Z,410
2018-04-08T05:47:03.871Z,415
2018-04-08T05:48:03.905Z,405
2018-04-08T05:49:18.580Z,430
2018-04-08T05:50:03.168Z,435
2018-04-08T05:51:03.970Z,455
2018-04-08T05:52:18.394Z,510
2018-04-08T05:53:03.596Z,535
2018-04-08T05:54:03.787Z,555
2018-04-08T05:55:03.547Z,635
2018-04-08T05:56:03.833Z,685
2018-04-08T05:57:03.336Z,695
2018-04-08T05:58:03.652Z,725
2018-04-08T05:59:03.905Z,730
2018-04-08T06:00:18.595Z,745
2018-04-08T06:01:04.213Z,735
2018-04-08T06:02:03.982Z,715
2018-04-08T06:03:03.744Z,735
2018-04-08T06:04:04.031Z,745
2018-04-08T06:05:03.797Z,745
2018-04-08T06:06:04.339Z,775
2018-04-08T06:07:19.037Z,750
2018-04-08T06:08:19.054Z,755
2018-04-08T06:09:04.166Z,750
2018-04-08T06:10:04.244Z,745
2018-04-08T06:11:04.478Z,750
2018-04-08T06:12:19.164Z,750
2018-04-08T06:13:04.271Z,755
2018-04-08T06:14:04.295Z,730
2018-04-08T06:15:04.616Z,695
2018-04-08T06:16:04.365Z,675
2018-04-08T06:17:04.384Z,655
2018-04-08T06:18:04.670Z,660
2018-04-08T06:19:04.185Z,635
2018-04-08T06:20:04.476Z,595
2018-04-08T06:21:04.758Z,560
2018-04-08T06:22:19.441Z,530
2018-04-08T06:23:04.034Z,520
2018-04-08T06:24:04.852Z,530
2018-04-08T06:25:04.669Z,535
2018-04-08T06:26:04.389Z,535
2018-04-08T06:28:04.697Z,525
2018-04-08T06:29:04.989Z,515
2018-04-08T06:30:04.507Z,515
2018-04-08T06:31:19.708Z,510
2018-04-08T06:32:05.083Z,515
2018-04-08T06:33:04.848Z,525
2018-04-08T06:34:05.143Z,525
2018-04-08T06:35:04.915Z,530
2018-04-08T06:36:04.941Z,540
2018-04-08T06:37:04.723Z,560
2018-04-08T06:38:19.661Z,600
2018-04-08T06:39:19.699Z,730
2018-04-08T06:40:19.722Z,1235
2018-04-08T06:41:05.394Z,1650
2018-04-08T06:42:05.141Z,1710
2018-04-08T06:43:05.156Z,1540
2018-04-08T06:44:05.188Z,1435
2018-04-08T06:45:05.472Z,1325
2018-04-08T06:46:05.246Z,1220
2018-04-08T06:47:20.211Z,1070
2018-04-08T06:48:05.310Z,1155
2018-04-08T06:49:05.604Z,1300
2018-04-08T06:50:20.297Z,1265
2018-04-08T06:51:05.761Z,1185
2018-04-08T06:52:20.101Z,1230
2018-04-08T06:53:20.133Z,1220
2018-04-08T06:54:20.419Z,1165
2018-04-08T06:55:20.192Z,1095
2018-04-08T06:56:05.831Z,1095
2018-04-08T06:57:05.601Z,1120
2018-04-08T06:58:05.629Z,1135
2018-04-08T06:59:05.663Z,1115
2018-04-08T07:00:05.964Z,1160
2018-04-08T07:01:05.733Z,1200
2018-04-08T07:02:20.678Z,1215
2018-04-08T07:03:20.715Z,1195
2018-04-08T07:04:20.744Z,1155
2018-04-08T07:05:05.853Z,1110
2018-04-08T07:06:06.159Z,1070
2018-04-08T07:07:06.182Z,1090
2018-04-08T07:08:06.001Z,1085
2018-04-08T07:09:05.731Z,1065
2018-04-08T07:10:06.014Z,1125
2018-04-08T07:11:20.454Z,1220
2018-04-08T07:12:06.222Z,1185
2018-04-08T07:13:05.861Z,1170
2018-04-08T07:14:06.152Z,1160
2018-04-08T07:15:05.923Z,1125
2018-04-08T07:16:06.471Z,1145
2018-04-08T07:17:06.509Z,1165
2018-04-08T07:18:06.346Z,1165
2018-04-08T07:19:06.052Z,1180
2018-04-08T07:21:06.384Z,1085
2018-04-08T07:22:06.670Z,1085
2018-04-08T07:23:06.184Z,1055
2018-04-08T07:24:06.480Z,1050
2018-04-08T07:26:06.290Z,1025
2018-04-08T07:27:35.898Z,1035
2018-04-08T07:28:06.608Z,1040
2018-04-08T07:29:06.393Z,1025
2018-04-08T07:30:06.416Z,1000
2018-04-08T07:31:06.712Z,1015
2018-04-08T07:32:06.738Z,1025
2018-04-08T07:33:07.040Z,1015
2018-04-08T07:34:06.805Z,1020
2018-04-08T07:36:06.888Z,1020
2018-04-08T07:37:06.911Z,1025
2018-04-08T07:38:21.869Z,1015
2018-04-08T07:39:07.231Z,990
2018-04-08T07:40:07.016Z,1000
2018-04-08T07:41:07.309Z,995
2018-04-08T07:42:21.993Z,1000
2018-04-08T07:43:07.104Z,1020
2018-04-08T07:44:21.540Z,1025
2018-04-08T07:45:06.919Z,1015
2018-04-08T07:46:06.948Z,1000
2018-04-08T07:47:07.240Z,955
2018-04-08T07:48:07.269Z,925
2018-04-08T07:49:07.569Z,940
2018-04-08T07:50:07.844Z,945
2018-04-08T07:51:07.113Z,920
2018-04-08T07:52:07.660Z,880
2018-04-08T07:53:07.177Z,860
2018-04-08T07:54:07.211Z,840
2018-04-08T07:55:22.425Z,835
2018-04-08T07:56:07.536Z,830
2018-04-08T07:57:22.485Z,820
2018-04-08T07:58:22.261Z,805
2018-04-08T08:00:07.985Z,795
2018-04-08T08:01:22.614Z,780
2018-04-08T08:02:07.990Z,775
2018-04-08T08:03:22.420Z,795
2018-04-08T08:04:07.795Z,785
2018-04-08T08:05:22.253Z,760
2018-04-08T08:06:22.787Z,770
2018-04-08T08:07:07.890Z,755
2018-04-08T08:08:07.921Z,710
2018-04-08T08:09:07.697Z,700
2018-04-08T08:10:08.252Z,690
2018-04-08T08:11:07.772Z,690
2018-04-08T08:12:07.792Z,680
2018-04-08T08:13:08.083Z,660
2018-04-08T08:14:37.441Z,650
2018-04-08T08:15:22.808Z,645
2018-04-08T08:16:07.668Z,635
2018-04-08T08:17:08.310Z,630
2018-04-08T08:18:08.255Z,620
2018-04-08T08:19:08.534Z,610
2018-04-08T08:20:08.575Z,600
2018-04-08T08:21:23.261Z,595
2018-04-08T08:22:08.470Z,590
2018-04-08T08:23:08.939Z,585
2018-04-08T08:24:08.435Z,570
2018-04-08T08:25:08.467Z,560
2018-04-08T08:26:08.756Z,550
2018-04-08T08:27:08.800Z,545
2018-04-08T08:28:08.830Z,530
2018-04-08T08:29:08.697Z,525
2018-04-08T08:30:23.284Z,515
2018-04-08T08:31:08.661Z,515
2018-04-08T08:32:08.945Z,505
2018-04-08T08:33:08.455Z,500
2018-04-08T08:34:08.753Z,500
2018-04-08T08:35:09.036Z,495
2018-04-08T08:36:08.818Z,490
2018-04-08T08:37:09.097Z,480
2018-04-08T08:38:23.836Z,480
2018-04-08T08:39:23.857Z,470
2018-04-08T08:40:08.934Z,475
2018-04-08T08:41:08.710Z,465
2018-04-08T08:42:23.668Z,465
2018-04-08T08:43:08.762Z,465
2018-04-08T08:44:09.318Z,465
2018-04-08T08:45:09.087Z,465
2018-04-08T08:46:24.033Z,465
2018-04-08T08:47:08.885Z,465
2018-04-08T08:48:09.439Z,465
2018-04-08T08:49:09.542Z,465
2018-04-08T08:50:09.247Z,460
2018-04-08T08:51:23.669Z,460
2018-04-08T08:52:23.958Z,455
2018-04-08T08:53:09.070Z,460
2018-04-08T08:54:09.620Z,460
2018-04-08T08:55:09.479Z,460
2018-04-08T08:56:09.425Z,465
2018-04-08T08:57:09.731Z,460
2018-04-08T08:58:24.448Z,455
2018-04-08T08:59:09.874Z,455
2018-04-08T09:00:09.806Z,455
2018-04-08T09:01:09.836Z,450
2018-04-08T09:02:24.006Z,455
2018-04-08T09:03:09.895Z,445
2018-04-08T09:04:09.415Z,435
2018-04-08T09:05:09.792Z,435
2018-04-08T09:06:09.719Z,420
2018-04-08T09:07:09.751Z,405
2018-04-08T09:08:09.788Z,390
2018-04-08T09:09:24.734Z,370
2018-04-08T09:10:09.846Z,355
2018-04-08T09:11:10.133Z,330
2018-04-08T09:12:09.529Z,315
2018-04-08T09:13:09.945Z,310
2018-04-08T09:14:09.962Z,310
2018-04-08T09:15:24.663Z,310
2018-04-08T09:16:24.939Z,310
2018-04-08T09:17:39.632Z,310
2018-04-08T09:18:09.828Z,310
2018-04-08T09:19:10.108Z,310
2018-04-08T09:20:10.139Z,310
2018-04-08T09:21:09.917Z,310
2018-04-08T09:22:10.461Z,305
2018-04-08T09:23:10.503Z,305
2018-04-08T09:24:10.307Z,305
2018-04-08T09:25:10.030Z,305
2018-04-08T09:27:10.351Z,300
2018-04-08T09:28:10.664Z,300
2018-04-08T09:29:10.211Z,300
2018-04-08T09:30:10.435Z,300
2018-04-08T09:31:10.571Z,300
2018-04-08T09:32:10.497Z,300
2018-04-08T09:33:25.444Z,295
2018-04-08T09:34:10.295Z,295
2018-04-08T09:35:24.990Z,295
2018-04-08T09:36:10.888Z,295
2018-04-08T09:37:10.136Z,290
2018-04-08T09:38:10.679Z,290
2018-04-08T09:39:10.701Z,290
2018-04-08T09:40:10.756Z,290
2018-04-08T09:41:25.419Z,290
2018-04-08T09:42:10.529Z,285
2018-04-08T09:43:10.821Z,285
2018-04-08T09:44:10.591Z,285
2018-04-08T09:45:10.875Z,285
2018-04-08T09:46:10.916Z,285
2018-04-08T09:47:11.199Z,280
2018-04-08T09:48:10.962Z,290
2018-04-08T09:49:25.925Z,280
2018-04-08T09:50:25.683Z,285
2018-04-08T09:52:10.822Z,285
2018-04-08T09:53:11.243Z,280
2018-04-08T09:54:11.143Z,280
2018-04-08T09:55:25.888Z,275
2018-04-08T09:56:11.198Z,275
2018-04-08T09:57:11.226Z,275
2018-04-08T09:58:11.523Z,275
2018-04-08T09:59:11.024Z,275
2018-04-08T10:00:11.582Z,275
2018-04-08T10:01:11.082Z,275
2018-04-08T10:02:11.117Z,265
2018-04-08T10:03:11.460Z,265
2018-04-08T10:04:11.435Z,270
2018-04-08T10:05:26.192Z,265
2018-04-08T10:06:11.492Z,260
2018-04-08T10:07:26.434Z,260
2018-04-08T10:08:11.648Z,260
2018-04-08T10:09:11.843Z,265
2018-04-08T10:10:11.904Z,265
2018-04-08T10:11:11.431Z,265
2018-04-08T10:12:11.677Z,265
2018-04-08T10:13:11.951Z,260
2018-04-08T10:14:11.718Z,260
2018-04-08T10:15:26.674Z,260
2018-04-08T10:16:11.773Z,255
2018-04-08T10:17:11.544Z,255
2018-04-08T10:18:11.831Z,250
2018-04-08T10:19:11.861Z,255
2018-04-08T10:20:11.634Z,250
2018-04-08T10:21:26.580Z,250
2018-04-08T10:22:11.945Z,250
2018-04-08T10:23:27.020Z,245
2018-04-08T10:24:12.010Z,250
2018-04-08T10:25:12.037Z,245
2018-04-08T10:26:12.066Z,245
2018-04-08T10:27:12.117Z,245
2018-04-08T10:28:12.382Z,245
2018-04-08T10:29:27.095Z,240
2018-04-08T10:30:11.948Z,240
2018-04-08T10:31:12.470Z,240
2018-04-08T10:32:12.543Z,235
2018-04-08T10:33:11.996Z,235
2018-04-08T10:34:12.288Z,230
2018-04-08T10:35:12.104Z,225
2018-04-08T10:36:12.347Z,220
2018-04-08T10:38:12.397Z,220
2018-04-08T10:39:12.684Z,215
2018-04-08T10:40:12.459Z,210
2018-04-08T10:41:12.757Z,210
2018-04-08T10:42:12.505Z,205
2018-04-08T10:43:27.191Z,205
2018-04-08T10:44:12.309Z,200
2018-04-08T10:45:12.329Z,200
2018-04-08T10:46:12.620Z,200
2018-04-08T10:47:12.642Z,195
2018-04-08T10:48:12.935Z,200
2018-04-08T10:49:12.437Z,190
2018-04-08T10:50:12.471Z,190
2018-04-08T10:51:12.490Z,190
2018-04-08T10:53:13.062Z,190
2018-04-08T10:54:12.831Z,185
2018-04-08T10:55:12.855Z,185
2018-04-08T10:56:12.884Z,185
2018-04-08T10:57:12.907Z,180
2018-04-08T10:58:13.092Z,180
2018-04-08T10:59:27.881Z,175
2018-04-08T11:00:12.728Z,175
2018-04-08T11:01:27.680Z,170
2018-04-08T11:02:13.299Z,170
2018-04-08T11:03:12.563Z,165
2018-04-08T11:05:12.857Z,165
2018-04-08T11:06:12.630Z,165
2018-04-08T11:07:12.915Z,160
2018-04-08T11:08:27.861Z,160
2018-04-08T11:09:13.079Z,155
2018-04-08T11:10:13.124Z,155
2018-04-08T11:11:27.681Z,150
2018-04-08T11:12:13.404Z,150
2018-04-08T11:13:27.469Z,150
2018-04-08T11:14:13.365Z,145
2018-04-08T11:15:13.388Z,145
2018-04-08T11:16:13.409Z,145
2018-04-08T11:17:13.430Z,145
2018-04-08T11:18:13.465Z,140
2018-04-08T11:19:13.497Z,140
2018-04-08T11:20:13.505Z,140
2018-04-08T11:21:13.545Z,140
2018-04-08T11:22:28.228Z,135
2018-04-08T11:23:28.504Z,135
2018-04-08T11:24:43.192Z,135
2018-04-08T11:25:13.903Z,135
2018-04-08T11:26:28.326Z,135
2018-04-08T11:27:28.349Z,135
2018-04-08T11:28:13.974Z,135
2018-04-08T11:29:13.482Z,135
2018-04-08T11:30:13.767Z,135
2018-04-08T11:31:28.495Z,135
2018-04-08T11:32:13.563Z,130
2018-04-08T11:33:13.854Z,130
2018-04-08T11:34:13.873Z,130
2018-04-08T11:35:13.902Z,130
2018-04-08T11:36:28.586Z,130
2018-04-08T11:37:13.949Z,130
2018-04-08T11:38:13.973Z,130
2018-04-08T11:39:13.736Z,130
2018-04-08T11:40:28.955Z,130
2018-04-08T11:41:14.153Z,130
2018-04-08T11:42:14.333Z,130
2018-04-08T11:43:14.105Z,130
2018-04-08T11:44:28.785Z,130
2018-04-08T11:45:14.151Z,130
2018-04-08T11:46:14.177Z,130
2018-04-08T11:47:14.301Z,130
2018-04-08T11:48:14.488Z,130
2018-04-08T11:49:29.179Z,130
2018-04-08T11:50:28.940Z,135
2018-04-08T11:51:14.564Z,135
2018-04-08T11:52:14.590Z,135
2018-04-08T11:53:13.837Z,135
2018-04-08T11:54:14.124Z,135
2018-04-08T11:55:14.674Z,135
2018-04-08T11:56:29.354Z,135
2018-04-08T11:57:14.822Z,135
2018-04-08T11:58:14.747Z,135
2018-04-08T11:59:14.515Z,135
2018-04-08T12:00:14.791Z,135
2018-04-08T12:01:14.566Z,135
2018-04-08T12:03:14.866Z,135
2018-04-08T12:04:14.378Z,135
2018-04-08T12:05:14.923Z,135
2018-04-08T12:06:14.949Z,135
2018-04-08T12:07:14.711Z,140
2018-04-08T12:08:14.738Z,135
2018-04-08T12:09:14.767Z,135
2018-04-08T12:10:14.530Z,140
2018-04-08T12:11:14.817Z,135
2018-04-08T12:12:29.759Z,135
2018-04-08T12:13:14.607Z,135
2018-04-08T12:14:14.895Z,135
2018-04-08T12:15:14.399Z,135
2018-04-08T12:17:15.222Z,135
2018-04-08T12:18:29.653Z,135
2018-04-08T12:19:29.418Z,135
2018-04-08T12:20:15.146Z,135
2018-04-08T12:22:15.352Z,135
2018-04-08T12:23:15.114Z,135
2018-04-08T12:24:14.884Z,140
2018-04-08T12:25:30.090Z,140
2018-04-08T12:26:15.199Z,140
2018-04-08T12:27:29.882Z,140
2018-04-08T12:28:30.179Z,140
2018-04-08T12:29:15.272Z,140
2018-04-08T12:30:15.304Z,140
2018-04-08T12:31:15.594Z,140
2018-04-08T12:32:15.351Z,140
2018-04-08T12:33:15.376Z,140
2018-04-08T12:34:15.505Z,140
2018-04-08T12:35:30.084Z,140
2018-04-08T12:36:15.448Z,140
2018-04-08T12:37:15.734Z,140
2018-04-08T12:38:15.761Z,140
2018-04-08T12:39:15.528Z,140
2018-04-08T12:40:15.808Z,140
2018-04-08T12:41:15.317Z,140
2018-04-08T12:42:15.865Z,140
2018-04-08T12:43:30.312Z,140
2018-04-08T12:44:15.652Z,140
2018-04-08T12:45:15.945Z,140
2018-04-08T12:46:30.363Z,140
2018-04-08T12:47:15.728Z,140
2018-04-08T12:48:15.752Z,140
2018-04-08T12:49:15.821Z,140
2018-04-08T12:50:15.812Z,140
2018-04-08T12:51:16.101Z,140
2018-04-08T12:52:16.110Z,140
2018-04-08T12:53:30.558Z,140
2018-04-08T12:54:15.650Z,140
2018-04-08T12:55:15.930Z,140
2018-04-08T12:57:15.996Z,140
2018-04-08T12:58:15.752Z,140
2018-04-08T12:59:30.703Z,140
2018-04-08T13:00:30.753Z,140
2018-04-08T13:02:30.765Z,140
2018-04-08T13:03:16.130Z,140
2018-04-08T13:04:16.159Z,140
2018-04-08T13:05:16.449Z,140
2018-04-08T13:06:16.214Z,140
2018-04-08T13:07:31.164Z,140
2018-04-08T13:08:16.261Z,140
2018-04-08T13:09:16.546Z,140
2018-04-08T13:10:16.566Z,140
2018-04-08T13:11:16.076Z,140
2018-04-08T13:12:31.289Z,140
2018-04-08T13:13:31.308Z,140
2018-04-08T13:14:16.525Z,140
2018-04-08T13:15:31.355Z,140
2018-04-08T13:16:16.215Z,140
2018-04-08T13:17:31.404Z,140
2018-04-08T13:18:16.771Z,140
2018-04-08T13:19:16.556Z,140
2018-04-08T13:20:16.826Z,140
2018-04-08T13:21:16.855Z,140
2018-04-08T13:22:16.873Z,140
2018-04-08T13:23:16.643Z,140
2018-04-08T13:24:16.942Z,140
2018-04-08T13:25:16.946Z,140
2018-04-08T13:26:16.715Z,140
2018-04-08T13:27:16.744Z,140
2018-04-08T13:28:16.768Z,140
2018-04-08T13:30:31.480Z,140
2018-04-08T13:31:46.419Z,140
2018-04-08T13:32:16.610Z,140
2018-04-08T13:33:31.553Z,140
2018-04-08T13:34:16.922Z,140
2018-04-08T13:35:31.863Z,140
2018-04-08T13:36:16.972Z,140
2018-04-08T13:37:17.259Z,140
2018-04-08T13:38:31.678Z,140
2018-04-08T13:39:31.760Z,140
2018-04-08T13:40:16.814Z,140
2018-04-08T13:41:16.838Z,140
2018-04-08T13:42:17.120Z,140
2018-04-08T13:43:31.810Z,140
2018-04-08T13:44:16.918Z,140
2018-04-08T13:45:16.933Z,140
2018-04-08T13:46:16.962Z,140
2018-04-08T13:47:31.902Z,140
2018-04-08T13:48:17.066Z,140
2018-04-08T13:49:17.294Z,140
2018-04-08T13:50:17.326Z,140
2018-04-08T13:51:32.274Z,140
2018-04-08T13:52:17.645Z,140
2018-04-08T13:53:17.652Z,140
2018-04-08T13:54:32.227Z,135
2018-04-08T13:55:17.199Z,135
2018-04-08T13:56:17.733Z,135
2018-04-08T13:57:17.284Z,135
2018-04-08T13:58:17.520Z,135
2018-04-08T13:59:17.031Z,135
2018-04-08T14:00:17.570Z,135
2018-04-08T14:01:17.596Z,135
2018-04-08T14:02:32.030Z,135
2018-04-08T14:03:17.683Z,140
2018-04-08T14:05:32.367Z,135
2018-04-08T14:06:17.984Z,135
2018-04-08T14:07:17.754Z,135
2018-04-08T14:08:17.776Z,135
2018-04-08T14:09:18.369Z,135
2018-04-08T14:10:18.099Z,135
2018-04-08T14:11:32.772Z,135
2018-04-08T14:12:17.892Z,135
2018-04-08T14:13:32.825Z,135
2018-04-08T14:14:17.925Z,135
2018-04-08T14:15:17.958Z,135
2018-04-08T14:16:18.234Z,135
2018-04-08T14:18:33.010Z,135
2018-04-08T14:19:18.308Z,135
2018-04-08T14:20:18.340Z,135
2018-04-08T14:21:17.849Z,130
2018-04-08T14:22:32.786Z,130
2018-04-08T14:24:18.438Z,130
2018-04-08T14:25:17.944Z,130
2018-04-08T14:26:17.972Z,130
2018-04-08T14:27:18.520Z,130
2018-04-08T14:28:18.780Z,130
2018-04-08T14:29:18.563Z,130
2018-04-08T14:30:18.588Z,130
2018-04-08T14:31:18.357Z,130
2018-04-08T14:32:18.644Z,130
2018-04-08T14:33:18.661Z,130
2018-04-08T14:34:33.097Z,130
2018-04-08T14:35:18.461Z,130